Time;durP1;ratioP1;P1;durP2;ratioP2;P2;SDS_P1;SDS_P2;PMS_P1;PMS_P2;Temp;Humidity;BMP_temperature;BMP_pressure;BME280_temperature;BME280_humidity;BME280_pressure;Samples;Min_cycle;Max_cycle;Signal;HPM_P1;HPM_P2
2022/11/06 00:00:57;;;;;;;9.27;5.82;;;9.90;99.90;;;;;;5037554;28;20045;-67
2022/11/06 00:03:24;;;;;;;10.00;6.30;;;9.90;99.90;;;;;;5037708;28;20045;-67
2022/11/06 00:08:54;;;;;;;9.45;6.18;;;9.80;99.90;;;;;;4979165;28;20514;-67
2022/11/06 00:11:20;;;;;;;11.48;6.60;;;9.80;99.90;;;;;;5000678;28;20090;-67
2022/11/06 00:13:46;;;;;;;12.93;6.78;;;9.80;99.90;;;;;;5028045;28;20048;-67
2022/11/06 00:16:13;;;;;;;9.40;5.93;;;9.80;99.90;;;;;;5055297;28;20032;-68
2022/11/06 00:18:40;;;;;;;10.45;6.40;;;9.80;99.90;;;;;;5057039;28;20075;-67
2022/11/06 00:21:08;;;;;;;11.05;6.72;;;9.70;99.90;;;;;;5063224;28;20093;-66
2022/11/06 00:23:34;;;;;;;14.30;6.80;;;9.80;99.90;;;;;;5055958;28;20037;-67
2022/11/06 00:25:59;;;;;;;9.10;5.90;;;9.80;99.90;;;;;;5046428;28;20048;-67
2022/11/06 00:28:25;;;;;;;13.68;6.80;;;9.80;99.90;;;;;;5057327;28;20468;-67
2022/11/06 00:30:59;;;;;;;11.75;6.65;;;9.80;99.90;;;;;;5039364;28;20108;-66
2022/11/06 00:33:25;;;;;;;11.13;7.05;;;9.70;99.90;;;;;;5040710;28;20049;-67
2022/11/06 00:35:50;;;;;;;10.65;6.55;;;9.70;99.90;;;;;;5036463;28;20063;-67
2022/11/06 00:38:16;;;;;;;8.38;6.53;;;9.70;99.90;;;;;;5037446;28;21356;-67
2022/11/06 00:40:41;;;;;;;10.68;7.13;;;9.70;99.90;;;;;;5042530;28;20037;-67
2022/11/06 00:43:07;;;;;;;10.05;7.07;;;9.70;99.90;;;;;;5036327;28;20178;-67
2022/11/06 00:45:33;;;;;;;10.43;6.75;;;9.70;99.90;;;;;;5039263;28;20041;-67
2022/11/06 00:47:58;;;;;;;12.27;7.05;;;9.60;99.90;;;;;;5038323;28;20028;-67
2022/11/06 00:50:25;;;;;;;10.38;6.95;;;9.60;99.90;;;;;;5039704;28;20041;-67
2022/11/06 00:52:51;;;;;;;13.10;7.47;;;9.60;99.90;;;;;;5040393;28;20124;-67
2022/11/06 00:55:16;;;;;;;10.85;7.10;;;9.60;99.90;;;;;;5015736;28;20123;-67
2022/11/06 00:57:42;;;;;;;9.43;6.65;;;9.60;99.90;;;;;;5038323;28;20045;-67
2022/11/06 01:00:10;;;;;;;10.55;6.53;;;9.60;99.90;;;;;;5038210;28;20128;-67
2022/11/06 01:02:35;;;;;;;14.95;6.50;;;9.60;99.90;;;;;;5037384;28;20048;-67
2022/11/06 01:05:01;;;;;;;16.45;7.10;;;9.60;99.90;;;;;;5036454;28;20041;-68
2022/11/06 01:07:27;;;;;;;12.38;6.80;;;9.60;99.90;;;;;;5036408;28;20049;-68
2022/11/06 01:09:53;;;;;;;10.20;6.70;;;9.60;99.90;;;;;;5037147;28;20044;-67
2022/11/06 01:12:18;;;;;;;11.00;6.57;;;9.60;99.90;;;;;;5035988;28;20043;-67
2022/11/06 01:14:44;;;;;;;12.75;7.00;;;9.60;99.90;;;;;;5033954;28;20103;-68
2022/11/06 01:17:10;;;;;;;16.80;7.60;;;9.60;99.90;;;;;;5035547;28;20037;-67
2022/11/06 01:19:36;;;;;;;15.98;8.48;;;9.60;99.90;;;;;;5036470;28;20083;-67
2022/11/06 01:22:02;;;;;;;13.20;7.95;;;9.50;99.90;;;;;;5035928;28;20427;-67
2022/11/06 01:24:28;;;;;;;12.43;7.63;;;9.50;99.90;;;;;;5032898;28;20077;-67
2022/11/06 01:26:55;;;;;;;11.13;8.15;;;9.50;99.90;;;;;;5035233;28;20062;-67
2022/11/06 01:29:20;;;;;;;16.17;7.60;;;9.40;99.90;;;;;;5037670;28;20054;-68
2022/11/06 01:31:49;;;;;;;11.07;7.53;;;9.40;99.90;;;;;;5037721;28;20472;-67
2022/11/06 01:34:15;;;;;;;14.15;7.28;;;9.40;99.90;;;;;;5037714;28;20045;-67
2022/11/06 01:36:41;;;;;;;12.27;8.15;;;9.30;99.90;;;;;;5059932;28;20040;-67
2022/11/06 01:39:09;;;;;;;14.38;8.75;;;9.30;99.90;;;;;;5046397;28;20094;-67
2022/11/06 01:41:38;;;;;;;19.67;8.20;;;9.30;99.90;;;;;;5062276;28;20045;-67
2022/11/06 01:44:25;;;;;;;12.95;8.55;;;9.30;99.90;;;;;;5055794;28;20112;-67
2022/11/06 01:46:50;;;;;;;11.88;8.05;;;9.30;99.90;;;;;;5041491;28;20048;-68
2022/11/06 01:49:16;;;;;;;16.40;9.38;;;9.30;99.90;;;;;;5055834;28;20095;-67
2022/11/06 01:51:55;;;;;;;15.10;8.55;;;9.30;99.90;;;;;;5058615;28;20083;-67
2022/11/06 01:54:24;;;;;;;14.55;8.75;;;9.30;99.90;;;;;;5058923;28;20242;-67
2022/11/06 01:56:52;;;;;;;14.65;8.15;;;9.30;99.90;;;;;;5026794;28;20037;-67
2022/11/06 01:59:22;;;;;;;13.65;7.85;;;9.20;99.90;;;;;;5063172;28;20365;-67
2022/11/06 02:01:48;;;;;;;14.52;8.27;;;9.20;99.90;;;;;;5060037;28;20052;-67
2022/11/06 02:04:21;;;;;;;13.93;8.63;;;9.20;99.90;;;;;;5041907;28;20048;-67
2022/11/06 02:06:48;;;;;;;15.88;9.23;;;9.20;99.90;;;;;;5043326;28;20098;-67
2022/11/06 02:09:15;;;;;;;18.80;7.82;;;9.20;99.90;;;;;;5042505;28;20411;-67
2022/11/06 02:11:58;;;;;;;13.27;8.68;;;9.20;99.90;;;;;;5044101;28;20413;-67
2022/11/06 02:14:39;;;;;;;14.20;9.00;;;9.20;99.90;;;;;;5040653;28;20624;-67
2022/11/06 02:17:19;;;;;;;12.32;8.65;;;9.20;99.90;;;;;;5060629;28;20039;-67
2022/11/06 02:19:58;;;;;;;15.35;8.30;;;9.10;99.90;;;;;;5058613;28;20032;-67
2022/11/06 02:22:55;;;;;;;16.52;8.80;;;9.10;99.90;;;;;;5040508;28;20324;-68
2022/11/06 02:25:36;;;;;;;18.27;8.90;;;9.10;99.90;;;;;;5062588;28;20590;-67
2022/11/06 02:28:33;;;;;;;15.85;9.73;;;9.10;99.90;;;;;;5061910;28;20097;-67
2022/11/06 02:31:04;;;;;;;10.45;7.38;;;9.10;99.90;;;;;;5025030;28;20527;-68
2022/11/06 02:33:39;;;;;;;12.85;8.38;;;9.10;99.90;;;;;;5037839;28;20175;-68
2022/11/06 02:36:06;;;;;;;;;;;9.10;99.90;;;;;;5041000;28;20421;-67
2022/11/06 02:38:36;;;;;;;16.02;8.10;;;9.00;99.90;;;;;;5037443;28;20009;-67
2022/11/06 02:41:05;;;;;;;13.32;8.40;;;9.10;99.90;;;;;;5048665;28;20041;-67
2022/11/06 02:43:38;;;;;;;13.27;7.50;;;9.00;99.90;;;;;;5073512;28;20056;-67
2022/11/06 02:46:16;;;;;;;11.88;8.40;;;9.00;99.90;;;;;;5039795;28;20033;-67
2022/11/06 02:49:01;;;;;;;12.90;7.93;;;9.00;99.90;;;;;;5067387;28;20045;-67
2022/11/06 02:51:29;;;;;;;;;;;9.10;99.90;;;;;;5043114;28;20091;-67
2022/11/06 02:53:59;;;;;;;15.32;7.97;;;9.00;99.90;;;;;;5041015;28;20323;-67
2022/11/06 02:56:30;;;;;;;9.43;7.68;;;9.00;99.90;;;;;;5034192;28;20049;-67
2022/11/06 02:59:03;;;;;;;15.20;8.05;;;9.00;99.90;;;;;;5040921;28;20271;-67
2022/11/06 03:01:43;;;;;;;14.40;8.40;;;9.10;99.90;;;;;;5039143;28;20045;-67
2022/11/06 03:04:21;;;;;;;13.90;7.40;;;9.00;99.90;;;;;;5042701;28;20052;-67
2022/11/06 03:07:19;;;;;;;17.63;7.70;;;9.00;99.90;;;;;;5039973;28;20112;-67
2022/11/06 03:09:46;;;;;;;14.18;7.38;;;9.00;99.90;;;;;;5037618;28;20066;-67
2022/11/06 03:12:28;;;;;;;11.65;7.45;;;9.00;99.90;;;;;;5026714;28;20030;-66
2022/11/06 03:15:14;;;;;;;18.15;8.05;;;9.00;99.90;;;;;;5040185;28;20478;-67
2022/11/06 03:17:58;;;;;;;12.80;7.28;;;9.10;99.90;;;;;;5036452;28;20083;-67
2022/11/06 03:20:35;;;;;;;15.00;6.72;;;9.10;99.90;;;;;;5039061;28;20095;-66
2022/11/06 03:23:19;;;;;;;16.10;7.03;;;9.00;99.90;;;;;;5038292;28;20045;-67
2022/11/06 03:26:16;;;;;;;13.35;7.75;;;9.00;99.90;;;;;;5038928;28;20041;-66
2022/11/06 03:28:58;;;;;;;13.45;7.47;;;9.00;99.90;;;;;;5038880;28;20064;-67
2022/11/06 03:31:33;;;;;;;15.45;7.93;;;9.00;99.90;;;;;;5057757;28;20412;-67
2022/11/06 03:34:03;;;;;;;13.43;7.35;;;9.00;99.90;;;;;;5043357;28;20456;-67
2022/11/06 03:36:53;;;;;;;16.20;6.97;;;9.00;99.90;;;;;;5063681;28;20041;-66
2022/11/06 03:39:30;;;;;;;17.83;7.43;;;9.00;99.90;;;;;;5057864;28;20045;-67
2022/11/06 03:42:04;;;;;;;16.48;7.40;;;9.00;99.90;;;;;;5061179;28;20043;-67
2022/11/06 03:44:32;;;;;;;18.83;7.32;;;9.00;99.90;;;;;;5053817;28;20048;-66
2022/11/06 03:47:21;;;;;;;17.63;7.18;;;9.00;99.90;;;;;;5055862;28;20036;-66
2022/11/06 03:49:56;;;;;;;12.00;6.50;;;9.00;99.90;;;;;;5041926;28;20097;-66
2022/11/06 03:52:37;;;;;;;11.98;6.70;;;9.00;99.90;;;;;;5044151;28;20122;-67
2022/11/06 03:55:12;;;;;;;16.25;7.05;;;9.00;99.90;;;;;;5057586;28;20041;-67
2022/11/06 03:57:50;;;;;;;14.43;6.55;;;9.00;99.90;;;;;;5038442;28;20060;-67
2022/11/06 04:00:19;;;;;;;15.20;7.07;;;9.00;99.90;;;;;;5056067;28;20041;-67
2022/11/06 04:03:03;;;;;;;9.95;6.38;;;9.00;99.90;;;;;;5046700;28;20052;-67
2022/11/06 04:05:35;;;;;;;17.08;6.80;;;9.00;99.90;;;;;;5043839;28;20040;-66
2022/11/06 04:16:32;;;;;;;14.07;6.60;;;9.00;99.90;;;;;;5046104;28;20376;-67
2022/11/06 04:18:58;;;;;;;15.38;6.32;;;9.00;99.90;;;;;;5057758;28;20709;-67
2022/11/06 04:21:35;;;;;;;14.50;6.70;;;9.00;99.90;;;;;;5042620;28;20102;-67
2022/11/06 04:27:10;;;;;;;14.88;6.68;;;8.90;99.90;;;;;;5048919;28;20170;-67
2022/11/06 04:30:13;;;;;;;17.75;6.45;;;9.00;99.90;;;;;;5056661;28;20060;-67
2022/11/06 04:32:58;;;;;;;12.57;6.22;;;9.00;99.90;;;;;;5021052;28;20513;-67
2022/11/06 04:35:39;;;;;;;;;;;9.00;99.90;;;;;;5059053;28;20081;-68
2022/11/06 04:38:23;;;;;;;14.88;6.13;;;8.90;99.90;;;;;;5061383;28;19924;-68
2022/11/06 04:41:04;;;;;;;15.30;6.32;;;9.00;99.90;;;;;;5040343;28;20048;-67
2022/11/06 04:43:39;;;;;;;13.07;5.80;;;8.90;99.90;;;;;;5057885;28;20115;-67
2022/11/06 04:46:10;;;;;;;13.68;6.00;;;8.90;99.90;;;;;;5056209;28;20044;-67
2022/11/06 04:48:37;;;;;;;11.10;6.28;;;9.00;99.90;;;;;;5051900;28;20449;-67
2022/11/06 04:51:06;;;;;;;11.45;5.85;;;9.00;99.90;;;;;;5038598;28;20334;-67
2022/11/06 04:53:34;;;;;;;11.82;5.85;;;9.00;99.90;;;;;;5059472;28;20045;-67
2022/11/06 04:56:06;;;;;;;12.35;6.15;;;9.00;99.90;;;;;;5057945;28;20484;-67
2022/11/06 04:58:32;;;;;;;11.98;6.07;;;9.00;99.90;;;;;;5061883;28;20033;-67
2022/11/06 05:00:58;;;;;;;14.25;5.85;;;8.90;99.90;;;;;;5058147;28;20100;-66
2022/11/06 05:03:23;;;;;;;10.07;5.95;;;9.00;99.90;;;;;;5054681;28;20411;-67
2022/11/06 05:05:49;;;;;;;14.65;5.60;;;9.00;99.90;;;;;;5038772;28;20444;-67
2022/11/06 05:08:17;;;;;;;12.68;5.63;;;9.00;99.90;;;;;;5056746;28;20037;-67
2022/11/06 05:10:44;;;;;;;14.40;5.97;;;9.00;99.90;;;;;;5040483;28;20135;-67
2022/11/06 05:13:10;;;;;;;10.50;5.15;;;9.00;99.90;;;;;;5064431;28;20056;-68
2022/11/06 05:15:37;;;;;;;14.55;5.82;;;9.00;99.90;;;;;;5036787;28;20047;-67
2022/11/06 05:18:03;;;;;;;15.48;5.20;;;9.00;99.90;;;;;;5041522;28;20502;-67
2022/11/06 05:20:30;;;;;;;12.35;5.20;;;9.00;99.90;;;;;;5054434;28;20045;-68
2022/11/06 05:23:02;;;;;;;14.15;5.50;;;9.00;99.90;;;;;;5044413;28;20041;-67
2022/11/06 05:25:38;;;;;;;11.10;5.05;;;9.00;99.90;;;;;;5054648;28;20033;-68
2022/11/06 05:28:06;;;;;;;13.40;4.60;;;9.00;99.90;;;;;;5039135;28;20480;-67
2022/11/06 05:30:33;;;;;;;15.10;4.80;;;9.00;99.90;;;;;;5060317;28;20116;-67
2022/11/06 05:32:59;;;;;;;9.70;4.95;;;9.00;99.90;;;;;;5057639;28;20040;-67
2022/11/06 05:35:25;;;;;;;11.45;4.70;;;8.90;99.90;;;;;;5060891;28;20047;-67
2022/11/06 05:37:56;;;;;;;13.88;4.50;;;8.90;99.90;;;;;;5061481;28;20048;-67
2022/11/06 05:40:22;;;;;;;16.10;4.85;;;8.90;99.90;;;;;;5042892;28;20091;-67
2022/11/06 05:42:48;;;;;;;11.27;4.30;;;8.90;99.90;;;;;;5065086;28;20476;-67
2022/11/06 05:45:13;;;;;;;9.07;3.90;;;8.90;99.90;;;;;;5061649;28;20140;-67
2022/11/06 05:47:40;;;;;;;12.45;4.03;;;8.90;99.90;;;;;;5059616;28;20094;-67
2022/11/06 05:50:08;;;;;;;9.27;3.75;;;8.90;99.90;;;;;;5047959;28;20128;-67
2022/11/06 05:52:34;;;;;;;11.18;4.10;;;9.00;99.90;;;;;;5056525;28;20040;-67
2022/11/06 05:55:00;;;;;;;12.82;4.00;;;9.00;99.90;;;;;;5060149;28;20031;-66
2022/11/06 05:57:26;;;;;;;11.18;3.92;;;9.00;99.90;;;;;;5057624;28;20112;-67
2022/11/06 05:59:52;;;;;;;11.75;3.50;;;9.00;99.90;;;;;;5040987;28;20036;-66
2022/11/06 06:02:17;;;;;;;10.88;3.58;;;9.10;99.90;;;;;;5063961;28;20643;-67
2022/11/06 06:04:43;;;;;;;8.57;3.50;;;9.00;99.90;;;;;;5041673;28;20078;-67
2022/11/06 06:07:09;;;;;;;9.52;3.15;;;9.10;99.90;;;;;;5057775;28;20064;-67
2022/11/06 06:09:34;;;;;;;10.95;3.70;;;9.10;99.90;;;;;;5043377;28;20491;-67
2022/11/06 06:12:00;;;;;;;10.57;3.60;;;9.10;99.90;;;;;;5059332;28;20103;-67
2022/11/06 06:14:26;;;;;;;7.82;3.03;;;9.20;99.90;;;;;;5062083;28;20079;-67
2022/11/06 06:16:52;;;;;;;9.68;3.85;;;9.20;99.90;;;;;;5063604;28;20495;-67
2022/11/06 06:19:17;;;;;;;10.52;3.42;;;9.20;99.90;;;;;;5038806;28;20041;-67
2022/11/06 06:21:43;;;;;;;12.25;3.78;;;9.20;99.90;;;;;;5057887;28;20550;-67
2022/11/06 06:24:09;;;;;;;8.85;3.08;;;9.30;99.90;;;;;;5021800;28;20116;-66
2022/11/06 06:26:35;;;;;;;8.95;2.85;;;9.30;99.90;;;;;;5042087;28;20127;-67
2022/11/06 06:29:01;;;;;;;10.82;3.10;;;9.30;99.90;;;;;;5046645;28;20037;-67
2022/11/06 06:31:27;;;;;;;8.90;3.00;;;9.30;99.90;;;;;;5036916;28;20060;-67
2022/11/06 06:33:52;;;;;;;12.55;3.15;;;9.30;99.90;;;;;;5058204;28;20040;-66
2022/11/06 06:36:18;;;;;;;10.50;2.90;;;9.30;99.90;;;;;;5054366;28;20048;-67
2022/11/06 06:38:44;;;;;;;10.98;3.40;;;9.40;99.90;;;;;;5058301;28;20055;-67
2022/11/06 06:41:09;;;;;;;11.07;3.00;;;9.40;99.90;;;;;;5041964;28;20040;-67
2022/11/06 06:43:35;;;;;;;11.95;3.05;;;9.40;99.90;;;;;;5056848;28;20107;-67
2022/11/06 06:46:04;;;;;;;11.93;2.97;;;9.40;99.90;;;;;;5056396;28;20037;-67
2022/11/06 06:48:30;;;;;;;8.30;2.90;;;9.50;99.90;;;;;;5038177;28;20121;-67
2022/11/06 06:51:00;;;;;;;12.73;3.13;;;9.50;99.90;;;;;;5040758;28;20056;-67
2022/11/06 06:53:26;;;;;;;11.70;3.20;;;9.50;99.90;;;;;;5043005;28;20044;-66
2022/11/06 06:55:52;;;;;;;12.27;2.70;;;9.50;99.90;;;;;;5058728;28;20083;-67
2022/11/06 06:58:18;;;;;;;6.32;2.65;;;9.50;99.90;;;;;;5040566;28;20078;-67
2022/11/06 07:00:44;;;;;;;8.57;2.70;;;9.50;99.90;;;;;;5039017;28;20797;-67
2022/11/06 07:03:10;;;;;;;9.15;2.88;;;9.50;99.90;;;;;;5036524;28;20058;-67
2022/11/06 07:05:39;;;;;;;9.90;2.78;;;9.50;99.90;;;;;;5052340;28;20098;-67
2022/11/06 07:08:05;;;;;;;11.30;2.88;;;9.60;99.90;;;;;;5051813;28;20501;-66
2022/11/06 07:10:31;;;;;;;12.73;2.83;;;9.60;99.90;;;;;;5051422;28;20189;-67
2022/11/06 07:13:04;;;;;;;6.43;2.28;;;9.70;99.90;;;;;;5052197;28;20515;-67
2022/11/06 07:15:31;;;;;;;9.65;2.80;;;9.70;99.90;;;;;;5055888;28;20044;-67
2022/11/06 07:18:06;;;;;;;9.45;2.63;;;9.70;99.90;;;;;;5037661;28;20461;-67
2022/11/06 07:20:33;;;;;;;9.65;2.60;;;9.80;99.90;;;;;;5039432;28;21225;-67
2022/11/06 07:23:04;;;;;;;13.20;2.95;;;9.70;99.90;;;;;;5052286;28;20072;-67
2022/11/06 07:25:30;;;;;;;10.40;2.58;;;9.80;99.90;;;;;;5051482;28;20391;-68
2022/11/06 07:28:01;;;;;;;6.43;2.70;;;9.80;99.90;;;;;;5035399;28;20043;-67
2022/11/06 07:30:27;;;;;;;7.50;2.10;;;9.90;99.90;;;;;;5055695;28;20052;-68
2022/11/06 07:32:52;;;;;;;7.82;2.28;;;9.90;99.90;;;;;;5053776;28;20480;-67
2022/11/06 07:35:18;;;;;;;8.48;2.10;;;9.90;99.90;;;;;;5057626;28;20029;-67
2022/11/06 07:37:44;;;;;;;9.52;2.50;;;10.00;99.90;;;;;;5064123;28;20123;-67
2022/11/06 07:40:10;;;;;;;8.82;2.58;;;10.00;99.90;;;;;;5060530;28;20120;-67
2022/11/06 07:42:36;;;;;;;7.40;2.30;;;10.00;99.90;;;;;;5055751;28;20047;-67
2022/11/06 07:45:01;;;;;;;7.30;2.70;;;10.00;99.90;;;;;;5045994;28;20048;-66
2022/11/06 07:47:30;;;;;;;14.95;4.63;;;10.00;99.90;;;;;;5057528;28;20040;-67
2022/11/06 07:49:56;;;;;;;6.85;2.20;;;10.10;99.90;;;;;;5056068;28;20066;-66
2022/11/06 07:52:22;;;;;;;7.28;2.20;;;10.10;99.90;;;;;;5059033;28;20515;-67
2022/11/06 07:54:47;;;;;;;6.80;2.28;;;10.10;99.90;;;;;;5040739;28;20124;-66
2022/11/06 07:57:13;;;;;;;6.95;1.92;;;10.10;99.90;;;;;;5054356;28;20037;-67
2022/11/06 07:59:39;;;;;;;8.52;2.15;;;10.10;99.90;;;;;;5038728;28;20504;-67
2022/11/06 08:02:05;;;;;;;6.70;2.22;;;10.10;99.90;;;;;;5043574;28;20489;-67
2022/11/06 08:04:31;;;;;;;7.43;1.90;;;10.10;99.90;;;;;;5041202;28;20123;-66
2022/11/06 08:06:57;;;;;;;6.70;2.45;;;10.20;99.90;;;;;;5052930;28;20559;-67
2022/11/06 08:09:24;;;;;;;8.07;2.05;;;10.20;99.90;;;;;;5058675;28;20041;-67
2022/11/06 08:11:50;;;;;;;8.30;1.80;;;10.20;99.90;;;;;;5035404;28;20036;-67
2022/11/06 08:14:16;;;;;;;7.13;2.10;;;10.20;99.90;;;;;;5035317;28;20047;-67
2022/11/06 08:16:42;;;;;;;5.65;1.70;;;10.20;99.90;;;;;;5059580;28;20033;-67
2022/11/06 08:19:10;;;;;;;8.38;1.83;;;10.20;99.90;;;;;;5056730;28;20503;-67
2022/11/06 08:21:36;;;;;;;9.00;2.30;;;10.30;99.90;;;;;;5060604;28;20037;-67
2022/11/06 08:24:03;;;;;;;6.70;1.70;;;10.30;99.90;;;;;;5053293;28;20068;-67
2022/11/06 08:26:29;;;;;;;12.23;2.28;;;10.30;99.90;;;;;;5054063;28;20499;-66
2022/11/06 08:28:56;;;;;;;7.20;1.52;;;10.40;99.90;;;;;;5060803;28;20131;-67
2022/11/06 08:31:22;;;;;;;11.35;2.35;;;10.40;99.90;;;;;;5062041;28;20091;-66
2022/11/06 08:33:48;;;;;;;8.73;1.80;;;10.40;99.90;;;;;;5057301;28;20455;-67
2022/11/06 08:36:14;;;;;;;8.20;1.52;;;10.30;99.90;;;;;;5040837;28;20357;-67
2022/11/06 08:38:40;;;;;;;9.50;2.47;;;10.30;99.90;;;;;;5060150;28;20040;-67
2022/11/06 08:41:08;;;;;;;5.93;1.63;;;10.20;99.90;;;;;;5056947;28;20036;-67
2022/11/06 08:43:34;;;;;;;7.32;1.88;;;10.30;99.90;;;;;;5041476;28;20048;-67
2022/11/06 08:46:00;;;;;;;9.88;1.70;;;10.30;99.90;;;;;;5039884;28;20074;-66
2022/11/06 08:48:26;;;;;;;8.63;1.90;;;10.20;99.90;;;;;;5041715;28;20044;-66
2022/11/06 08:50:51;;;;;;;9.23;2.13;;;10.30;99.90;;;;;;5073398;28;20048;-66
2022/11/06 08:53:17;;;;;;;8.48;2.13;;;10.30;99.90;;;;;;5054690;28;20154;-67
2022/11/06 08:55:43;;;;;;;5.93;1.88;;;10.40;99.90;;;;;;5043836;28;20132;-67
2022/11/06 08:58:09;;;;;;;8.40;1.85;;;10.50;99.90;;;;;;5062722;28;20040;-67
2022/11/06 09:00:35;;;;;;;9.70;2.05;;;10.60;99.90;;;;;;5058135;28;20033;-67
2022/11/06 09:03:06;;;;;;;7.53;2.03;;;10.70;99.90;;;;;;5044442;28;20567;-67
2022/11/06 09:05:32;;;;;;;6.35;1.88;;;10.80;99.90;;;;;;5048807;28;20078;-67
2022/11/06 09:07:58;;;;;;;7.55;1.80;;;10.70;99.90;;;;;;5057774;28;20041;-66
2022/11/06 09:10:25;;;;;;;8.43;1.90;;;10.80;99.90;;;;;;5065062;28;20122;-67
2022/11/06 09:12:51;;;;;;;7.07;1.63;;;10.80;99.90;;;;;;5041632;28;20036;-66
2022/11/06 09:15:19;;;;;;;9.95;1.92;;;10.90;99.90;;;;;;5043705;28;20045;-67
2022/11/06 09:17:46;;;;;;;8.18;1.80;;;11.00;99.90;;;;;;5044253;28;20497;-66
2022/11/06 09:20:13;;;;;;;9.15;2.17;;;11.30;99.90;;;;;;5062901;28;20037;-66
2022/11/06 09:22:40;;;;;;;8.48;2.08;;;11.40;99.90;;;;;;5061627;28;20072;-67
2022/11/06 09:25:06;;;;;;;6.00;1.88;;;11.80;99.90;;;;;;5042448;28;20083;-66
2022/11/06 09:27:33;;;;;;;6.88;1.88;;;12.50;99.90;;;;;;5062703;28;20113;-66
2022/11/06 09:29:58;;;;;;;4.70;1.65;;;13.70;99.90;;;;;;5058638;28;20041;-66
2022/11/06 09:32:24;;;;;;;7.80;1.42;;;14.70;99.90;;;;;;5044886;28;20051;-66
2022/11/06 09:34:50;;;;;;;6.57;1.63;;;15.60;99.90;;;;;;5060941;28;20484;-66
2022/11/06 09:37:16;;;;;;;5.22;1.30;;;16.20;99.90;;;;;;5066571;28;20311;-66
2022/11/06 09:39:42;;;;;;;4.50;1.27;;;16.60;99.90;;;;;;5064859;28;20043;-66
2022/11/06 09:42:17;;;;;;;5.45;1.27;;;17.00;99.90;;;;;;5060940;28;20144;-67
2022/11/06 09:45:22;;;;;;;4.78;1.30;;;16.30;99.90;;;;;;5055756;28;20131;-66
2022/11/06 09:48:08;;;;;;;5.33;1.30;;;15.30;99.90;;;;;;5032728;28;20836;-67
2022/11/06 09:50:43;;;;;;;9.75;1.95;;;14.30;99.90;;;;;;5048820;28;21008;-67
2022/11/06 09:53:38;;;;;;;4.72;1.40;;;13.80;99.90;;;;;;5049287;28;20048;-67
2022/11/06 09:56:05;;;;;;;5.57;1.48;;;13.40;99.90;;;;;;5035561;28;20044;-66
2022/11/06 09:58:36;;;;;;;6.75;1.15;;;13.20;99.90;;;;;;5058534;28;20044;-67
2022/11/06 10:01:15;;;;;;;7.68;1.98;;;13.10;99.90;;;;;;5059375;28;20040;-66
2022/11/06 10:03:52;;;;;;;9.70;1.52;;;13.00;99.90;;;;;;5060441;28;20488;-67
2022/11/06 10:06:21;;;;;;;6.40;1.30;;;12.80;99.90;;;;;;5058800;28;20488;-67
2022/11/06 10:08:48;;;;;;;9.63;1.77;;;12.60;99.90;;;;;;5058604;28;20071;-67
2022/11/06 10:11:13;;;;;;;6.07;1.30;;;12.40;99.90;;;;;;5065756;28;20425;-67
2022/11/06 10:14:07;;;;;;;5.22;1.05;;;12.30;99.90;;;;;;5057504;28;20057;-67
2022/11/06 10:16:49;;;;;;;8.05;1.20;;;12.20;99.90;;;;;;5032048;28;20373;-68
2022/11/06 10:19:31;;;;;;;8.02;2.00;;;12.10;99.90;;;;;;5063099;28;20045;-67
2022/11/06 10:22:16;;;;;;;6.45;1.38;;;12.00;99.90;;;;;;5063344;28;20044;-67
2022/11/06 10:25:18;;;;;;;3.83;1.13;;;11.90;99.90;;;;;;5060152;28;20231;-67
2022/11/06 10:28:23;;;;;;;5.90;1.70;;;11.80;99.90;;;;;;5056677;28;20564;-66
2022/11/06 10:31:00;;;;;;;6.95;1.38;;;11.80;99.90;;;;;;5062862;28;20073;-66
2022/11/06 10:34:01;;;;;;;9.07;1.63;;;11.70;99.90;;;;;;5059871;28;20045;-66
2022/11/06 10:36:58;;;;;;;5.88;1.38;;;11.70;99.90;;;;;;5015316;28;20045;-67
2022/11/06 10:39:30;;;;;;;3.30;0.98;;;11.60;99.90;;;;;;5022240;28;20088;-67
2022/11/06 10:42:20;;;;;;;6.63;1.35;;;11.60;99.90;;;;;;5059860;28;20048;-67
2022/11/06 10:44:56;;;;;;;4.35;1.25;;;11.60;99.90;;;;;;5052188;28;20052;-66
2022/11/06 10:47:26;;;;;;;6.10;1.40;;;11.60;99.90;;;;;;5059718;28;20053;-67
2022/11/06 10:49:56;;;;;;;5.65;1.30;;;11.50;99.90;;;;;;5056312;28;20044;-66
2022/11/06 10:52:53;;;;;;;6.53;1.58;;;11.50;99.90;;;;;;5064934;28;20045;-66
2022/11/06 10:55:33;;;;;;;7.13;1.42;;;11.50;99.90;;;;;;5056651;28;20057;-66
2022/11/06 10:58:08;;;;;;;8.52;1.52;;;11.40;99.90;;;;;;5039792;28;20040;-67
2022/11/06 11:00:34;;;;;;;7.35;1.65;;;11.40;99.90;;;;;;5055294;28;20086;-68
2022/11/06 11:03:04;;;;;;;8.85;1.83;;;11.50;99.90;;;;;;5058618;28;20044;-67
2022/11/06 11:05:39;;;;;;;4.55;1.77;;;11.60;99.90;;;;;;5056292;28;20102;-67
2022/11/06 11:08:05;;;;;;;7.88;1.85;;;11.70;99.90;;;;;;5043890;28;20496;-68
2022/11/06 11:10:33;;;;;;;5.80;1.25;;;11.80;99.90;;;;;;5042537;28;20130;-67
2022/11/06 11:13:02;;;;;;;6.53;1.50;;;11.90;99.90;;;;;;5055980;28;20076;-67
2022/11/06 11:15:38;;;;;;;7.45;2.15;;;11.90;99.90;;;;;;5060344;28;20492;-67
2022/11/06 11:18:11;;;;;;;8.40;1.23;;;12.00;99.90;;;;;;5058534;28;20361;-67
2022/11/06 11:20:39;;;;;;;6.72;1.30;;;12.00;99.90;;;;;;5038550;28;20049;-68
2022/11/06 11:23:21;;;;;;;5.60;1.60;;;11.90;99.90;;;;;;5041035;28;20160;-68
2022/11/06 11:26:11;;;;;;;8.52;1.60;;;12.00;99.90;;;;;;5031098;28;20051;-68
2022/11/06 11:28:38;;;;;;;7.50;1.45;;;12.00;99.90;;;;;;5057572;28;20037;-67
2022/11/06 11:31:15;;;;;;;6.85;1.80;;;12.00;99.90;;;;;;5057471;28;20057;-67
2022/11/06 11:33:49;;;;;;;8.23;1.42;;;12.00;99.90;;;;;;5042730;28;20365;-68
2022/11/06 11:36:14;;;;;;;5.57;1.50;;;12.10;99.90;;;;;;5037277;28;20045;-67
2022/11/06 11:38:41;;;;;;;9.35;1.60;;;12.00;99.90;;;;;;5042145;28;20079;-68
2022/11/06 11:41:19;;;;;;;5.60;1.45;;;12.10;99.90;;;;;;5060838;28;20527;-67
2022/11/06 11:44:04;;;;;;;4.45;1.48;;;12.10;99.90;;;;;;5040084;28;20076;-68
2022/11/06 11:46:31;;;;;;;5.30;1.33;;;12.20;99.90;;;;;;5060277;28;20120;-68
2022/11/06 11:48:57;;;;;;;9.07;1.52;;;12.20;99.90;;;;;;5059409;28;20059;-68
2022/11/06 11:51:38;;;;;;;6.45;1.80;;;12.20;99.90;;;;;;5045069;28;20480;-68
2022/11/06 11:54:10;;;;;;;6.75;1.00;;;12.20;99.90;;;;;;5040865;28;20048;-67
2022/11/06 11:56:47;;;;;;;6.68;1.33;;;12.20;99.90;;;;;;5061275;28;20067;-68
2022/11/06 11:59:20;;;;;;;6.68;1.15;;;12.30;99.90;;;;;;5061984;28;20040;-67
2022/11/06 12:01:47;;;;;;;6.75;1.40;;;12.30;99.90;;;;;;5039394;28;20535;-69
2022/11/06 12:04:26;;;;;;;4.40;1.15;;;12.30;99.90;;;;;;5055125;28;20491;-68
2022/11/06 12:06:58;;;;;;;7.07;1.17;;;12.40;99.90;;;;;;5058986;28;20353;-67
2022/11/06 12:09:26;;;;;;;3.65;1.10;;;12.50;99.90;;;;;;5046045;28;20037;-67
2022/11/06 12:11:56;;;;;;;4.90;1.10;;;12.40;99.90;;;;;;5039763;28;20115;-67
2022/11/06 12:14:34;;;;;;;6.63;1.10;;;12.50;99.90;;;;;;5058378;28;20131;-67
2022/11/06 12:17:10;;;;;;;6.88;0.98;;;12.50;99.90;;;;;;5058973;28;20048;-68
2022/11/06 12:19:38;;;;;;;6.57;0.90;;;12.50;99.90;;;;;;5061219;28;20041;-68
2022/11/06 12:22:11;;;;;;;4.22;0.80;;;12.60;99.90;;;;;;5044231;28;20055;-68
2022/11/06 12:24:58;;;;;;;10.45;1.40;;;12.60;99.90;;;;;;5059019;28;20579;-68
2022/11/06 12:27:30;;;;;;;7.15;1.45;;;12.70;99.90;;;;;;5057859;28;20036;-68
2022/11/06 12:30:02;;;;;;;7.22;1.30;;;12.70;99.90;;;;;;5041458;28;20287;-68
2022/11/06 12:33:05;;;;;;;2.88;0.82;;;12.80;99.90;;;;;;5058803;28;20048;-67
2022/11/06 12:35:36;;;;;;;5.38;1.17;;;12.90;99.90;;;;;;5039347;28;20052;-68
2022/11/06 12:38:24;;;;;;;4.55;1.10;;;12.80;99.90;;;;;;5051485;28;20395;-67
2022/11/06 12:41:15;;;;;;;4.38;1.05;;;12.70;99.90;;;;;;5050894;28;20387;-68
2022/11/06 12:43:49;;;;;;;6.15;1.30;;;12.70;99.90;;;;;;5006218;28;20049;-68
2022/11/06 12:46:33;;;;;;;7.68;1.20;;;12.60;99.90;;;;;;5048913;28;20471;-68
2022/11/06 12:49:07;;;;;;;4.90;0.93;;;12.60;99.90;;;;;;5030812;28;20048;-67
2022/11/06 12:51:51;;;;;;;6.88;1.20;;;12.50;99.90;;;;;;5052355;28;20400;-67
2022/11/06 12:54:58;;;;;;;5.07;1.23;;;12.50;99.90;;;;;;5051026;28;20394;-68
2022/11/06 12:57:51;;;;;;;6.38;1.08;;;12.40;99.90;;;;;;5036992;28;20136;-67
2022/11/06 13:00:20;;;;;;;5.85;1.30;;;12.40;99.90;;;;;;5054227;28;20384;-67
2022/11/06 13:03:17;;;;;;;5.97;1.13;;;12.40;99.90;;;;;;5049488;28;20353;-68
2022/11/06 13:06:05;;;;;;;5.63;1.02;;;12.40;99.90;;;;;;5032919;28;20052;-68
2022/11/06 13:08:53;;;;;;;5.85;1.00;;;12.30;99.90;;;;;;5051179;28;20040;-67
2022/11/06 13:11:38;;;;;;;5.32;0.82;;;12.30;99.90;;;;;;5035841;28;20051;-67
2022/11/06 13:14:12;;;;;;;4.50;1.20;;;12.30;99.90;;;;;;5034539;28;20044;-68
2022/11/06 13:16:43;;;;;;;5.30;0.95;;;12.30;99.90;;;;;;5038941;28;20037;-67
2022/11/06 13:19:34;;;;;;;3.63;0.77;;;12.20;99.90;;;;;;5038339;28;20037;-67
2022/11/06 13:22:22;;;;;;;4.93;1.00;;;12.20;99.90;;;;;;5057928;28;20056;-67
2022/11/06 13:25:04;;;;;;;3.33;0.75;;;12.20;99.90;;;;;;5039431;28;20067;-67
2022/11/06 13:27:56;;;;;;;2.90;0.88;;;12.20;99.90;;;;;;5060635;28;20495;-67